Time;durP1;ratioP1;P1;durP2;ratioP2;P2;SDS_P1;SDS_P2;PMS_P1;PMS_P2;Temp;Humidity;BMP_temperature;BMP_pressure;BME280_temperature;BME280_humidity;BME280_pressure;Samples;Min_cycle;Max_cycle;Signal;HPM_P1;HPM_P2
2021/04/07 00:02:29;;;;;;;2.87;2.40;;;0.00;93.40;;;;;;4857794;29;20239;-93
2021/04/07 00:19:03;;;;;;;2.67;2.40;;;-0.10;92.20;;;;;;4871046;29;20348;-94
2021/04/07 00:41:45;;;;;;;6.30;2.70;;;0.20;90.60;;;;;;4870898;29;20234;-93
2021/04/07 01:49:35;;;;;;;3.83;3.10;;;0.20;92.30;;;;;;4868706;29;20207;-93
2021/04/07 02:03:14;;;;;;;4.20;2.80;;;0.20;91.40;;;;;;4842612;29;20344;-93
2021/04/07 02:11:10;;;;;;;3.37;2.80;;;0.20;90.80;;;;;;4853831;29;20223;-92
2021/04/07 02:13:36;;;;;;;3.87;2.93;;;0.10;90.80;;;;;;4862624;29;20226;-92
2021/04/07 02:30:15;;;;;;;3.87;3.00;;;-0.10;90.70;;;;;;4852197;29;20212;-91
2021/04/07 02:35:23;;;;;;;4.43;3.20;;;-0.20;91.10;;;;;;4869055;29;20215;-93
2021/04/07 02:37:50;;;;;;;4.73;3.00;;;-0.20;91.30;;;;;;4867125;29;20240;-92
2021/04/07 02:40:16;;;;;;;4.30;3.20;;;-0.10;90.70;;;;;;4870771;29;20310;-92
2021/04/07 02:45:24;;;;;;;5.37;3.07;;;-0.10;90.40;;;;;;4856803;29;20569;-92
2021/04/07 02:50:55;;;;;;;3.87;3.10;;;-0.10;90.70;;;;;;4876716;29;20417;-93
2021/04/07 02:58:43;;;;;;;4.20;3.30;;;-0.20;90.60;;;;;;4856060;29;20243;-93
2021/04/07 03:09:36;;;;;;;3.10;2.80;;;0.00;90.00;;;;;;4866820;29;20263;-92
2021/04/07 03:14:48;;;;;;;3.50;2.97;;;-0.10;90.00;;;;;;4875852;29;20214;-93
2021/04/07 03:17:14;;;;;;;4.83;3.27;;;-0.10;90.00;;;;;;4877898;29;20271;-92
2021/04/07 03:27:49;;;;;;;4.27;2.90;;;-0.20;89.70;;;;;;4862415;29;20267;-92
2021/04/07 03:30:17;;;;;;;3.63;3.20;;;-0.20;89.30;;;;;;4875822;29;20280;-93
2021/04/07 03:32:44;;;;;;;3.23;2.60;;;-0.20;90.00;;;;;;4870764;29;20599;-92
2021/04/07 03:37:53;;;;;;;3.20;2.90;;;-0.20;90.20;;;;;;4847831;29;20627;-92
2021/04/07 03:40:19;;;;;;;3.33;2.70;;;-0.20;88.80;;;;;;4875375;29;20701;-92
2021/04/07 03:42:46;;;;;;;5.03;3.20;;;-0.20;89.10;;;;;;4876734;29;20238;-92
2021/04/07 03:45:14;;;;;;;4.07;2.87;;;-0.20;89.50;;;;;;4854300;29;20212;-92
2021/04/07 03:47:40;;;;;;;6.93;3.20;;;-0.20;89.60;;;;;;4877539;29;20231;-92
2021/04/07 03:50:08;;;;;;;4.83;2.83;;;-0.30;89.90;;;;;;4878286;29;20268;-92
2021/04/07 03:57:57;;;;;;;3.60;3.03;;;-0.30;90.40;;;;;;4854331;29;20243;-92
2021/04/07 04:11:09;;;;;;;3.27;2.80;;;-0.30;90.40;;;;;;4861361;29;20206;-92
2021/04/07 04:13:35;;;;;;;2.63;2.40;;;-0.40;90.60;;;;;;4873542;29;20259;-94
2021/04/07 04:21:23;;;;;;;2.97;2.67;;;-0.30;90.60;;;;;;4862255;29;20591;-93
2021/04/07 04:29:12;;;;;;;5.37;2.87;;;-0.30;90.20;;;;;;4851859;29;20293;-93
2021/04/07 04:42:27;;;;;;;2.93;2.63;;;-0.20;85.90;;;;;;4876081;29;20239;-93
2021/04/07 04:58:23;;;;;;;6.17;3.50;;;-0.40;88.30;;;;;;4873771;29;20309;-93
2021/04/07 05:00:50;;;;;;;5.20;2.90;;;-0.30;88.60;;;;;;4870576;29;20241;-94
2021/04/07 05:06:00;;;;;;;5.70;3.43;;;-0.30;86.90;;;;;;4870595;29;20664;-93
2021/04/07 05:14:11;;;;;;;4.30;3.33;;;-0.50;90.30;;;;;;4882459;29;20668;-92
2021/04/07 05:19:18;;;;;;;5.00;3.90;;;-0.60;90.70;;;;;;4865768;29;20242;-94
2021/04/07 05:21:45;;;;;;;4.47;3.87;;;-0.60;91.60;;;;;;4886610;29;20220;-93
2021/04/07 05:24:12;;;;;;;4.20;3.80;;;-0.50;91.30;;;;;;4881241;29;20316;-94
2021/04/07 05:45:31;;;;;;;4.43;3.63;;;0.00;91.10;;;;;;4861762;29;20222;-94
2021/04/07 05:47:57;;;;;;;4.53;3.60;;;0.20;91.20;;;;;;4876195;29;20260;-93
2021/04/07 05:53:29;;;;;;;6.00;3.90;;;0.20;90.20;;;;;;4817177;29;20594;-92
2021/04/07 06:10:59;;;;;;;3.77;3.07;;;0.10;92.50;;;;;;4854948;29;20263;-92
2021/04/07 06:13:25;;;;;;;5.77;3.97;;;0.00;92.80;;;;;;4860919;29;20298;-92
2021/04/07 06:18:33;;;;;;;6.27;3.60;;;0.10;92.70;;;;;;4872755;29;20191;-91
2021/04/07 06:21:00;;;;;;;5.23;3.53;;;0.10;92.70;;;;;;4876277;29;20306;-91
2021/04/07 06:23:26;;;;;;;4.87;3.77;;;0.10;92.20;;;;;;4878328;29;20247;-91
2021/04/07 06:28:34;;;;;;;4.63;3.70;;;0.10;91.80;;;;;;4865952;29;20242;-92
2021/04/07 06:31:02;;;;;;;5.17;3.80;;;0.40;91.80;;;;;;4864546;29;20248;-90
2021/04/07 06:33:31;;;;;;;6.57;3.93;;;0.60;91.10;;;;;;4865136;29;20231;-89
2021/04/07 06:36:02;;;;;;;5.20;3.67;;;0.70;90.10;;;;;;4868240;29;20209;-89
2021/04/07 06:38:29;;;;;;;5.97;3.73;;;0.90;89.90;;;;;;4871466;29;20303;-91
2021/04/07 06:43:38;;;;;;;4.83;3.57;;;1.00;86.40;;;;;;4871635;29;20351;-91
2021/04/07 06:46:10;;;;;;;3.40;3.10;;;0.90;86.40;;;;;;4872877;29;20208;-91
2021/04/07 06:51:21;;;;;;;3.90;3.27;;;0.60;87.00;;;;;;4870171;29;20204;-91
2021/04/07 06:53:50;;;;;;;7.40;3.50;;;0.40;87.80;;;;;;4867532;29;20256;-90
2021/04/07 06:56:17;;;;;;;4.60;3.47;;;0.40;87.20;;;;;;4873478;29;20526;-90
2021/04/07 06:58:44;;;;;;;4.03;3.47;;;0.50;88.50;;;;;;4876255;29;20235;-90
2021/04/07 07:01:11;;;;;;;5.20;3.70;;;0.70;86.20;;;;;;4872484;29;20211;-90
2021/04/07 07:03:37;;;;;;;3.93;3.50;;;0.50;86.20;;;;;;4867924;29;20564;-90
2021/04/07 07:06:04;;;;;;;4.43;3.40;;;0.50;86.10;;;;;;4862659;29;20294;-90
2021/04/07 07:08:32;;;;;;;3.90;3.27;;;0.70;86.20;;;;;;4875065;29;20234;-93
2021/04/07 07:13:58;;;;;;;6.60;2.90;;;0.90;83.50;;;;;;4861236;29;20267;-90
2021/04/07 07:16:27;;;;;;;6.60;3.77;;;1.10;81.30;;;;;;4872672;29;20684;-91
2021/04/07 07:18:53;;;;;;;3.90;3.27;;;1.10;81.50;;;;;;4869154;29;20280;-91
2021/04/07 07:21:27;;;;;;;5.83;3.60;;;1.20;80.40;;;;;;4869997;29;20363;-90
2021/04/07 07:32:11;;;;;;;4.03;2.87;;;1.10;78.00;;;;;;4883121;29;20786;-91
2021/04/07 07:34:38;;;;;;;5.17;3.20;;;1.40;76.90;;;;;;4877023;29;20205;-91
2021/04/07 07:37:06;;;;;;;5.40;3.17;;;1.80;76.90;;;;;;4866816;29;20292;-92
2021/04/07 07:39:35;;;;;;;4.90;2.90;;;1.90;71.20;;;;;;4881887;29;20224;-93
2021/04/07 07:42:21;;;;;;;4.57;3.13;;;1.70;71.40;;;;;;4874124;29;20229;-92
2021/04/07 07:44:47;;;;;;;4.53;3.03;;;1.70;71.10;;;;;;4877744;29;20224;-91
2021/04/07 07:47:20;;;;;;;5.70;3.13;;;1.90;72.80;;;;;;4876178;29;20243;-91
2021/04/07 07:49:57;;;;;;;6.17;3.27;;;2.00;68.30;;;;;;4871828;29;20255;-91
2021/04/07 07:52:30;;;;;;;4.07;3.10;;;2.00;68.30;;;;;;4862321;29;20245;-90
2021/04/07 07:54:57;;;;;;;4.30;3.27;;;2.10;69.50;;;;;;4866836;29;20209;-91
2021/04/07 07:57:24;;;;;;;3.70;2.73;;;2.40;67.10;;;;;;4876004;29;20236;-90
2021/04/07 07:59:56;;;;;;;5.90;3.00;;;2.70;65.30;;;;;;4866526;29;20211;-91
2021/04/07 08:02:28;;;;;;;7.93;4.00;;;2.70;64.80;;;;;;4868065;29;20235;-90
2021/04/07 08:04:54;;;;;;;8.27;4.00;;;2.70;65.40;;;;;;4871055;29;20754;-90
2021/04/07 08:07:23;;;;;;;8.67;3.30;;;2.90;67.50;;;;;;4869029;29;20704;-90
2021/04/07 08:09:49;;;;;;;4.93;3.73;;;3.20;63.30;;;;;;4869714;29;20228;-90
2021/04/07 08:12:17;;;;;;;4.53;3.60;;;3.70;62.20;;;;;;4873491;29;20293;-90
2021/04/07 08:14:49;;;;;;;6.00;3.70;;;3.10;67.80;;;;;;4878982;29;20226;-91
2021/04/07 08:28:29;;;;;;;4.90;3.70;;;1.80;80.20;;;;;;4868049;29;20226;-90
2021/04/07 08:30:56;;;;;;;6.97;3.87;;;2.10;79.50;;;;;;4877210;29;20207;-91
2021/04/07 08:33:23;;;;;;;5.43;3.50;;;2.30;78.80;;;;;;4873350;29;20230;-90
2021/04/07 08:39:08;;;;;;;4.67;3.40;;;2.40;75.30;;;;;;4856355;29;20314;-91
2021/04/07 08:50:10;;;;;;;6.60;2.83;;;2.50;74.70;;;;;;4869395;29;20270;-91
2021/04/07 08:55:50;;;;;;;6.03;3.10;;;3.20;69.30;;;;;;4868324;29;20208;-93
2021/04/07 09:12:56;;;;;;;3.22;2.20;;;9.20;35.30;;;;;;5430904;23;20237;-95
2021/04/07 10:15:45;;;;;;;8.55;2.33;;;6.90;40.40;;;;;;5727169;23;20502;-93
2021/04/07 10:18:11;;;;;;;6.17;1.73;;;4.20;60.90;;;;;;4900960;29;20231;-90
2021/04/07 10:20:39;;;;;;;3.10;2.03;;;2.70;73.50;;;;;;4892028;29;20235;-90
2021/04/07 10:23:10;;;;;;;4.73;2.37;;;2.20;77.20;;;;;;4890021;29;20620;-90
2021/04/07 10:25:36;;;;;;;3.97;2.00;;;1.80;80.10;;;;;;4892741;29;20219;-90
2021/04/07 10:28:03;;;;;;;2.20;1.97;;;1.00;87.70;;;;;;4892389;29;20237;-88
2021/04/07 10:30:40;;;;;;;1.83;1.67;;;0.60;91.10;;;;;;4893052;29;20213;-85
2021/04/07 10:33:28;;;;;;;5.80;2.20;;;0.30;91.80;;;;;;4885013;29;20229;-86
2021/04/07 10:36:04;;;;;;;3.97;2.20;;;0.40;93.00;;;;;;4895506;29;20259;-86
2021/04/07 10:38:35;;;;;;;3.10;2.17;;;0.50;90.70;;;;;;4892656;29;20369;-86
2021/04/07 10:41:03;;;;;;;3.23;2.30;;;1.10;89.50;;;;;;4888807;29;20261;-87
2021/04/07 10:43:32;;;;;;;3.33;1.90;;;2.50;83.50;;;;;;4895751;29;20683;-88
2021/04/07 10:46:00;;;;;;;3.33;1.90;;;4.20;77.10;;;;;;4885851;29;20223;-91
2021/04/07 10:48:27;;;;;;;3.70;2.23;;;5.00;62.20;;;;;;4891489;29;20227;-90
2021/04/07 10:50:54;;;;;;;4.57;2.60;;;5.20;57.40;;;;;;4899729;29;20475;-88
2021/04/07 10:53:32;;;;;;;3.87;2.20;;;4.40;57.60;;;;;;4889768;29;20227;-87
2021/04/07 10:56:14;;;;;;;3.43;2.20;;;3.10;67.80;;;;;;4899738;29;20199;-87
2021/04/07 10:58:42;;;;;;;4.23;2.47;;;2.40;72.60;;;;;;4897452;29;20313;-89
2021/04/07 11:01:10;;;;;;;4.73;2.83;;;2.10;75.70;;;;;;4898762;29;20277;-86
2021/04/07 11:03:38;;;;;;;3.37;2.50;;;2.00;77.40;;;;;;4890243;29;20234;-86
2021/04/07 11:06:04;;;;;;;4.57;2.43;;;1.90;78.00;;;;;;4898903;29;20220;-86
2021/04/07 11:08:36;;;;;;;3.47;2.47;;;2.00;79.00;;;;;;4900174;29;20286;-87
2021/04/07 11:11:03;;;;;;;5.30;2.70;;;2.50;77.80;;;;;;4887444;29;20214;-88
2021/04/07 11:13:30;;;;;;;3.80;2.17;;;3.00;71.40;;;;;;4894501;29;20231;-88
2021/04/07 11:16:07;;;;;;;2.53;1.90;;;3.60;69.30;;;;;;4894400;29;20572;-89
2021/04/07 11:18:34;;;;;;;2.97;1.80;;;4.00;65.40;;;;;;4892115;29;20702;-88
2021/04/07 11:21:01;;;;;;;9.03;2.43;;;3.90;58.40;;;;;;4892953;29;20555;-91
2021/04/07 11:23:30;;;;;;;3.60;2.00;;;3.70;60.70;;;;;;4898713;29;20321;-91
2021/04/07 11:25:57;;;;;;;3.50;2.30;;;3.70;62.90;;;;;;4894546;29;20202;-90
2021/04/07 11:28:23;;;;;;;2.70;1.90;;;3.60;60.60;;;;;;4894677;29;20267;-91
2021/04/07 11:31:03;;;;;;;4.10;1.73;;;4.00;63.10;;;;;;4896548;29;20222;-91
2021/04/07 11:33:50;;;;;;;4.03;1.80;;;4.50;62.30;;;;;;4875647;29;20231;-91
2021/04/07 11:36:45;;;;;;;4.63;2.00;;;4.50;51.60;;;;;;4895896;29;20255;-91
2021/04/07 11:39:18;;;;;;;3.27;1.63;;;4.30;53.70;;;;;;4888019;29;20242;-91
2021/04/07 11:44:32;;;;;;;5.47;1.73;;;5.20;58.80;;;;;;4885827;29;20234;-92
2021/04/07 11:47:18;;;;;;;3.33;1.27;;;5.10;49.00;;;;;;4898520;29;20227;-91
2021/04/07 11:49:44;;;;;;;2.97;1.53;;;4.90;44.20;;;;;;4898711;29;20235;-92
2021/04/07 11:52:14;;;;;;;8.17;1.60;;;4.80;42.50;;;;;;4888783;29;20668;-92
2021/04/07 12:04:00;;;;;;;5.47;1.50;;;5.10;40.10;;;;;;4869750;29;20247;-92
2021/04/07 12:06:26;;;;;;;2.53;1.70;;;5.00;41.90;;;;;;4897976;29;20294;-92
2021/04/07 12:11:37;;;;;;;4.50;1.67;;;5.00;44.30;;;;;;4895731;29;20223;-92
2021/04/07 12:14:24;;;;;;;7.03;1.80;;;5.30;44.50;;;;;;4903383;29;20211;-92
2021/04/07 12:19:31;;;;;;;4.50;1.63;;;5.00;44.30;;;;;;4901116;29;20206;-92
2021/04/07 12:21:58;;;;;;;3.73;1.60;;;5.20;44.50;;;;;;4898670;29;20227;-92
2021/04/07 12:24:25;;;;;;;2.20;1.60;;;5.00;44.30;;;;;;4898524;29;20238;-92
2021/04/07 12:26:52;;;;;;;4.03;1.50;;;5.20;44.50;;;;;;4906934;29;21255;-92
2021/04/07 12:29:38;;;;;;;2.30;1.30;;;5.20;41.10;;;;;;4897980;29;20208;-92
2021/04/07 12:34:46;;;;;;;5.10;1.80;;;5.40;39.90;;;;;;4897661;29;20218;-92
2021/04/07 12:37:13;;;;;;;4.00;1.50;;;5.90;45.10;;;;;;4895479;29;20231;-92
2021/04/07 12:42:26;;;;;;;2.83;1.60;;;6.00;36.00;;;;;;4897776;29;20706;-93
2021/04/07 14:29:16;;;;;;;2.70;1.70;;;4.20;52.50;;;;;;4839854;29;20235;-92
2021/04/07 15:29:31;;;;;;;4.20;2.00;;;3.90;55.50;;;;;;4890064;29;20233;-92
2021/04/07 16:12:56;;;;;;;4.43;2.40;;;3.10;71.20;;;;;;4890811;29;20227;-92
2021/04/07 16:18:15;;;;;;;2.87;2.10;;;3.20;67.80;;;;;;4904677;29;20234;-90
2021/04/07 16:20:42;;;;;;;4.63;2.10;;;3.00;69.50;;;;;;4903143;29;20267;-87
2021/04/07 16:23:08;;;;;;;3.93;2.03;;;2.90;67.80;;;;;;4901976;29;20615;-89
2021/04/07 16:32:20;;;;;;;3.77;2.37;;;2.80;71.20;;;;;;4902310;29;20230;-90
2021/04/07 16:34:47;;;;;;;3.93;2.27;;;2.70;71.20;;;;;;4902866;29;20294;-90
2021/04/07 16:40:36;;;;;;;3.67;2.20;;;2.60;73.50;;;;;;4902792;29;20183;-89
2021/04/07 16:43:03;;;;;;;4.87;2.37;;;2.50;72.60;;;;;;4903467;29;20308;-89
2021/04/07 16:45:29;;;;;;;2.97;2.23;;;2.60;74.00;;;;;;4902408;29;20281;-81
2021/04/07 16:51:19;;;;;;;3.10;2.50;;;2.60;75.10;;;;;;4903890;29;20253;-82
2021/04/07 16:53:49;;;;;;;3.27;2.67;;;2.50;75.80;;;;;;4906569;29;20241;-84
2021/04/07 16:56:34;;;;;;;5.37;2.43;;;2.50;75.80;;;;;;4905646;29;20203;-83
2021/04/07 16:59:01;;;;;;;3.97;2.60;;;2.60;77.20;;;;;;4902507;29;20231;-82
2021/04/07 17:01:30;;;;;;;4.23;2.80;;;2.60;77.90;;;;;;4903235;29;20210;-82
2021/04/07 17:03:56;;;;;;;5.77;2.70;;;2.50;78.90;;;;;;4902358;29;20279;-80
2021/04/07 17:06:24;;;;;;;2.93;2.30;;;2.50;80.90;;;;;;4903011;29;20209;-80
2021/04/07 17:08:50;;;;;;;4.33;2.60;;;2.60;82.10;;;;;;4902045;29;20736;-80
2021/04/07 17:11:17;;;;;;;4.03;2.80;;;2.40;81.70;;;;;;4901976;29;20732;-80
2021/04/07 17:17:06;;;;;;;4.53;2.60;;;2.30;84.30;;;;;;4902492;29;20251;-81
2021/04/07 17:22:56;;;;;;;3.60;2.70;;;2.10;85.60;;;;;;4902011;29;20231;-82
2021/04/07 17:25:24;;;;;;;3.30;2.43;;;2.00;87.10;;;;;;4902602;29;20223;-82
2021/04/07 17:27:50;;;;;;;6.10;2.90;;;2.00;89.20;;;;;;4901762;29;20237;-83
2021/04/07 17:33:39;;;;;;;4.33;2.70;;;1.80;90.80;;;;;;4902236;29;20238;-82
2021/04/07 17:36:06;;;;;;;3.73;2.60;;;1.70;91.00;;;;;;4901627;29;20207;-82
2021/04/07 17:38:35;;;;;;;4.07;2.93;;;1.60;90.90;;;;;;4900916;29;20249;-83
2021/04/07 17:41:34;;;;;;;4.07;2.33;;;1.60;91.00;;;;;;4901299;29;20210;-82
2021/04/07 17:47:25;;;;;;;3.20;2.10;;;1.50;90.20;;;;;;4901521;29;20294;-83
2021/04/07 17:53:14;;;;;;;4.57;2.80;;;1.60;88.80;;;;;;4901721;29;20390;-84
2021/04/07 17:55:43;;;;;;;6.27;2.83;;;1.70;88.20;;;;;;4900858;29;20199;-81
2021/04/07 17:58:13;;;;;;;3.20;2.50;;;1.80;86.90;;;;;;4902401;29;20238;-83
2021/04/07 18:00:40;;;;;;;5.77;2.60;;;1.80;86.90;;;;;;4901179;29;20290;-83
2021/04/07 18:03:07;;;;;;;3.63;2.60;;;1.70;86.90;;;;;;4901006;29;20231;-83
2021/04/07 18:08:56;;;;;;;4.20;2.90;;;1.70;86.80;;;;;;4900936;29;20253;-82
2021/04/07 18:11:36;;;;;;;4.23;2.50;;;1.70;86.90;;;;;;4901499;29;20669;-83
2021/04/07 18:17:24;;;;;;;4.77;2.80;;;1.70;86.90;;;;;;4900549;29;20678;-82
2021/04/07 18:19:51;;;;;;;6.70;2.80;;;1.70;86.90;;;;;;4902338;29;20211;-83
2021/04/07 18:25:40;;;;;;;3.93;2.73;;;1.80;87.00;;;;;;4901541;29;20211;-83
2021/04/07 18:28:09;;;;;;;4.27;2.67;;;1.80;88.10;;;;;;4901010;29;20287;-82
2021/04/07 18:33:57;;;;;;;4.20;2.80;;;1.60;90.10;;;;;;4900353;29;20355;-82
2021/04/07 18:36:35;;;;;;;3.73;3.00;;;1.60;91.00;;;;;;4901641;29;20682;-83
2021/04/07 18:39:02;;;;;;;9.70;2.83;;;1.60;91.30;;;;;;4901181;29;20255;-82
2021/04/07 18:41:32;;;;;;;4.47;3.10;;;1.60;92.00;;;;;;4902444;29;20207;-82
2021/04/07 18:43:59;;;;;;;3.83;2.90;;;1.70;92.00;;;;;;4901438;29;20255;-82
2021/04/07 18:46:26;;;;;;;5.47;3.33;;;1.50;92.70;;;;;;4900494;29;20863;-82
2021/04/07 18:48:55;;;;;;;5.13;3.20;;;1.40;93.30;;;;;;4900180;29;20235;-82
2021/04/07 18:51:35;;;;;;;5.07;3.33;;;1.30;94.30;;;;;;4901101;29;20208;-82
2021/04/07 18:54:02;;;;;;;3.77;3.37;;;1.20;94.30;;;;;;4900533;29;20237;-82
2021/04/07 18:56:28;;;;;;;7.83;3.37;;;1.20;94.30;;;;;;4902403;29;20207;-82
2021/04/07 19:02:18;;;;;;;4.97;3.50;;;1.00;95.80;;;;;;4905966;29;20266;-82
2021/04/07 19:08:07;;;;;;;5.30;3.80;;;0.90;96.80;;;;;;4903913;29;20357;-81
2021/04/07 19:10:39;;;;;;;7.33;3.90;;;1.00;96.70;;;;;;4907930;29;20238;-83
2021/04/07 19:13:06;;;;;;;6.53;4.00;;;0.90;97.00;;;;;;4908396;29;20259;-82
2021/04/07 19:19:00;;;;;;;4.57;3.50;;;0.90;96.50;;;;;;4901372;29;20275;-81
2021/04/07 19:21:29;;;;;;;6.60;3.73;;;0.80;97.50;;;;;;4901311;29;20241;-82
2021/04/07 19:23:56;;;;;;;6.37;3.27;;;0.70;97.80;;;;;;4899641;29;20694;-81
2021/04/07 19:27:01;;;;;;;4.37;3.33;;;0.60;97.70;;;;;;5130957;27;20563;-79
2021/04/07 19:29:32;;;;;;;4.47;3.07;;;0.60;97.90;;;;;;5113830;28;20252;-82
2021/04/07 19:35:24;;;;;;;4.20;3.20;;;0.60;97.60;;;;;;5113258;28;20239;-80
2021/04/07 19:37:53;;;;;;;5.03;2.93;;;0.70;98.20;;;;;;5112942;27;20235;-81
2021/04/07 19:43:44;;;;;;;5.27;3.47;;;0.70;97.90;;;;;;5093836;27;20290;-80
2021/04/07 19:46:11;;;;;;;5.50;3.50;;;0.80;98.00;;;;;;5092864;28;20298;-79
2021/04/07 19:55:01;;;;;;;5.00;3.07;;;0.70;97.60;;;;;;5076402;28;20205;-80
2021/04/07 20:00:56;;;;;;;5.73;3.47;;;0.70;98.20;;;;;;5094567;28;20223;-80
2021/04/07 20:03:43;;;;;;;4.57;3.00;;;0.70;98.10;;;;;;5093117;28;20280;-80
2021/04/07 20:06:09;;;;;;;4.40;3.50;;;0.70;98.10;;;;;;5091190;28;20224;-79
2021/04/07 20:08:36;;;;;;;4.93;3.70;;;0.80;97.70;;;;;;5093925;28;20229;-81
2021/04/07 20:11:37;;;;;;;5.73;3.97;;;0.80;98.10;;;;;;5094580;28;20197;-81
2021/04/07 20:17:27;;;;;;;5.83;3.30;;;0.70;97.90;;;;;;5135724;27;20573;-80
2021/04/07 20:19:53;;;;;;;4.43;3.20;;;0.80;97.80;;;;;;5137997;27;20202;-80
2021/04/07 20:25:48;;;;;;;5.43;3.30;;;0.80;97.60;;;;;;5135708;28;20224;-81
2021/04/07 20:28:28;;;;;;;3.73;3.03;;;0.80;97.60;;;;;;5133701;27;20249;-81
2021/04/07 20:31:39;;;;;;;5.00;3.47;;;0.70;97.40;;;;;;5133779;27;20286;-81
2021/04/07 20:34:12;;;;;;;4.10;2.87;;;0.70;97.80;;;;;;5133718;27;20617;-81
2021/04/07 20:40:05;;;;;;;4.73;2.93;;;0.80;97.30;;;;;;5120590;28;20213;-80
2021/04/07 20:42:40;;;;;;;3.80;3.30;;;0.70;97.40;;;;;;5120678;28;20223;-80
2021/04/07 20:45:08;;;;;;;5.83;3.23;;;0.70;97.70;;;;;;5118466;28;20242;-80
2021/04/07 20:50:57;;;;;;;4.33;3.20;;;0.80;97.90;;;;;;5118075;28;20165;-80
2021/04/07 20:53:23;;;;;;;4.23;2.67;;;0.70;97.60;;;;;;5117691;28;20226;-80
2021/04/07 20:55:50;;;;;;;4.07;3.13;;;0.70;97.70;;;;;;5117912;28;20646;-80
2021/04/07 20:58:16;;;;;;;4.27;3.30;;;0.60;98.00;;;;;;5118265;28;20227;-80
2021/04/07 21:00:43;;;;;;;5.30;3.50;;;0.60;98.30;;;;;;5119674;28;20195;-80
2021/04/07 21:03:10;;;;;;;6.47;3.03;;;0.70;98.20;;;;;;5120477;28;20228;-80
2021/04/07 21:08:59;;;;;;;4.30;3.10;;;0.70;97.80;;;;;;5119912;28;20255;-80
2021/04/07 21:11:36;;;;;;;5.37;3.07;;;0.70;97.90;;;;;;5122058;28;20544;-81
2021/04/07 21:14:03;;;;;;;3.63;2.87;;;0.60;97.90;;;;;;5122967;28;20229;-82
2021/04/07 21:16:29;;;;;;;4.47;3.27;;;0.60;98.00;;;;;;5121073;28;20253;-80
2021/04/07 21:18:56;;;;;;;5.93;3.63;;;0.60;98.40;;;;;;5118802;28;20256;-80
2021/04/07 21:21:23;;;;;;;5.40;3.20;;;0.50;98.80;;;;;;5118977;28;20201;-80
2021/04/07 21:23:49;;;;;;;8.33;3.27;;;0.60;98.40;;;;;;5119245;28;20312;-80
2021/04/07 21:26:16;;;;;;;5.00;3.50;;;0.60;98.10;;;;;;5119356;27;20265;-80
2021/04/07 21:28:43;;;;;;;4.77;3.13;;;0.60;98.20;;;;;;5119256;28;20226;-80
2021/04/07 21:31:09;;;;;;;4.60;3.40;;;0.60;98.50;;;;;;5120158;28;20538;-80
2021/04/07 21:33:36;;;;;;;5.27;3.20;;;0.50;98.20;;;;;;5125590;28;20251;-80
2021/04/07 21:36:02;;;;;;;4.03;3.33;;;0.60;98.80;;;;;;5130127;28;20245;-80
2021/04/07 21:38:28;;;;;;;6.40;3.13;;;0.60;98.50;;;;;;5119612;28;20237;-80
2021/04/07 21:40:55;;;;;;;4.07;2.87;;;0.70;98.60;;;;;;5119681;28;20703;-80
2021/04/07 21:43:22;;;;;;;4.07;2.57;;;0.70;98.20;;;;;;5120110;28;20238;-80
2021/04/07 21:45:49;;;;;;;6.07;3.00;;;0.60;98.10;;;;;;5119903;28;20668;-80
2021/04/07 21:51:38;;;;;;;3.70;3.20;;;0.60;98.40;;;;;;5121425;28;20158;-81
2021/04/07 21:54:04;;;;;;;5.03;3.00;;;0.60;98.50;;;;;;5116579;28;20241;-80
2021/04/07 21:56:31;;;;;;;5.33;3.80;;;0.60;98.50;;;;;;5117632;28;20214;-80
2021/04/07 21:58:58;;;;;;;4.13;3.20;;;0.60;98.40;;;;;;5116420;27;20231;-80
2021/04/07 22:01:25;;;;;;;4.43;3.00;;;0.60;98.40;;;;;;5117267;27;20194;-79
2021/04/07 22:03:52;;;;;;;4.77;3.07;;;0.60;98.20;;;;;;5117275;28;20257;-79
2021/04/07 22:06:20;;;;;;;4.63;2.83;;;0.70;98.50;;;;;;5116315;28;20226;-80
2021/04/07 22:08:47;;;;;;;6.17;3.00;;;0.70;98.50;;;;;;5115897;28;20555;-80
2021/04/07 22:11:14;;;;;;;4.93;2.90;;;0.70;98.20;;;;;;5117548;28;20194;-80
2021/04/07 22:13:40;;;;;;;6.20;3.17;;;0.70;98.00;;;;;;5116154;28;20724;-79
2021/04/07 22:16:08;;;;;;;3.47;2.70;;;0.70;97.90;;;;;;5115467;28;20200;-80
2021/04/07 22:18:35;;;;;;;4.17;2.83;;;0.70;97.80;;;;;;5116409;28;20223;-80
2021/04/07 22:21:06;;;;;;;5.37;3.17;;;0.70;97.80;;;;;;5116449;28;20203;-80
2021/04/07 22:23:35;;;;;;;4.00;2.93;;;0.70;97.20;;;;;;5117272;28;20313;-80
2021/04/07 22:26:03;;;;;;;4.30;3.00;;;0.70;97.50;;;;;;5117407;28;20225;-80
2021/04/07 22:28:30;;;;;;;3.90;3.00;;;0.70;97.30;;;;;;5117712;28;20284;-80
2021/04/07 22:31:05;;;;;;;10.23;3.10;;;0.70;97.00;;;;;;5118096;28;20203;-80
2021/04/07 22:33:38;;;;;;;5.37;3.20;;;0.70;96.90;;;;;;5117737;28;20255;-80
2021/04/07 22:36:07;;;;;;;4.43;3.27;;;0.70;96.80;;;;;;5118467;28;20199;-80
2021/04/07 22:46:20;;;;;;;3.90;2.73;;;0.80;96.30;;;;;;5243018;22;20231;-79
2021/04/07 22:48:50;;;;;;;3.93;2.80;;;0.80;95.80;;;;;;5114950;28;20306;-79
2021/04/07 22:51:16;;;;;;;4.47;2.97;;;0.80;95.80;;;;;;5116206;28;20256;-80
2021/04/07 22:54:06;;;;;;;4.13;2.60;;;0.90;96.10;;;;;;5116259;28;20618;-80
2021/04/07 22:56:32;;;;;;;3.37;2.80;;;0.90;95.40;;;;;;5115101;28;20229;-80
2021/04/07 22:58:59;;;;;;;3.30;2.87;;;1.00;95.20;;;;;;5115303;27;20200;-80
2021/04/07 23:01:27;;;;;;;3.73;2.80;;;0.90;95.10;;;;;;5115134;28;20630;-80
2021/04/07 23:03:54;;;;;;;4.63;2.80;;;0.90;95.50;;;;;;5115549;28;20219;-79
2021/04/07 23:06:20;;;;;;;5.67;2.70;;;0.90;95.20;;;;;;5116461;28;20211;-80
2021/04/07 23:08:47;;;;;;;6.80;3.00;;;0.90;95.60;;;;;;5115266;28;20219;-79
2021/04/07 23:11:13;;;;;;;3.60;2.77;;;0.90;95.50;;;;;;5116115;28;20223;-80
2021/04/07 23:13:39;;;;;;;6.07;3.03;;;1.00;95.50;;;;;;5116942;28;20255;-81
2021/04/07 23:19:33;;;;;;;4.40;2.80;;;1.00;95.50;;;;;;5116734;28;20592;-80
2021/04/07 23:21:59;;;;;;;4.60;2.90;;;1.00;95.30;;;;;;5115781;28;20246;-80
2021/04/07 23:24:25;;;;;;;3.53;2.80;;;0.90;95.60;;;;;;5116940;28;20209;-81
2021/04/07 23:26:52;;;;;;;3.57;3.00;;;0.90;95.60;;;;;;5115202;28;20607;-80
2021/04/07 23:29:18;;;;;;;5.67;2.90;;;0.90;95.70;;;;;;5115724;28;20199;-80
2021/04/07 23:31:44;;;;;;;4.37;2.60;;;0.90;95.40;;;;;;5117475;28;20541;-80
2021/04/07 23:34:11;;;;;;;3.20;2.73;;;0.80;95.50;;;;;;5116615;28;20702;-80
2021/04/07 23:36:38;;;;;;;3.97;2.60;;;0.80;95.70;;;;;;5116264;28;20434;-80
2021/04/07 23:39:04;;;;;;;3.10;2.57;;;0.80;95.60;;;;;;5115692;28;20215;-80
2021/04/07 23:41:31;;;;;;;4.37;2.83;;;0.90;95.60;;;;;;5116007;28;20187;-80
2021/04/07 23:44:43;;;;;;;3.93;2.70;;;0.90;95.30;;;;;;5116966;28;20227;-80
2021/04/07 23:47:10;;;;;;;4.53;3.20;;;0.90;95.10;;;;;;5118391;28;20229;-80
2021/04/07 23:49:36;;;;;;;3.63;2.87;;;0.80;95.10;;;;;;5117526;28;20252;-79
2021/04/07 23:58:57;;;;;;;7.23;2.43;;;0.70;95.40;;;;;;5121894;28;20223;-80
